sensor_id;sensor_type;location;lat;lon;timestamp;temperature;humidity
14154;DHT22;7157;53.144;7.570;2023-08-12T00:03:23;21.72;93.21
14154;DHT22;7157;53.144;7.570;2023-08-12T00:13:27;21.64;93.74
14154;DHT22;7157;53.144;7.570;2023-08-12T00:23:30;21.43;94.85
14154;DHT22;7157;53.144;7.570;2023-08-12T00:33:35;21.29;95.97
14154;DHT22;7157;53.144;7.570;2023-08-12T00:43:37;21.16;96.73
14154;DHT22;7157;53.144;7.570;2023-08-12T00:53:42;21.22;97.06
14154;DHT22;7157;53.144;7.570;2023-08-12T01:03:45;21.06;97.65
14154;DHT22;7157;53.144;7.570;2023-08-12T01:13:56;21.08;98.22
14154;DHT22;7157;53.144;7.570;2023-08-12T01:24:01;21.16;97.84
14154;DHT22;7157;53.144;7.570;2023-08-12T01:34:09;21.23;97.54
14154;DHT22;7157;53.144;7.570;2023-08-12T01:44:16;21.28;97.42
14154;DHT22;7157;53.144;7.570;2023-08-12T01:54:19;21.06;97.89
14154;DHT22;7157;53.144;7.570;2023-08-12T02:04:23;21.05;98.00
14154;DHT22;7157;53.144;7.570;2023-08-12T02:14:26;20.95;98.46
14154;DHT22;7157;53.144;7.570;2023-08-12T02:24:30;20.92;98.53
14154;DHT22;7157;53.144;7.570;2023-08-12T02:34:33;21.01;98.06
14154;DHT22;7157;53.144;7.570;2023-08-12T02:44:37;20.90;98.32
14154;DHT22;7157;53.144;7.570;2023-08-12T02:54:40;20.86;98.75
14154;DHT22;7157;53.144;7.570;2023-08-12T03:04:44;20.66;99.57
14154;DHT22;7157;53.144;7.570;2023-08-12T03:14:47;20.70;99.40
14154;DHT22;7157;53.144;7.570;2023-08-12T03:24:51;20.64;99.69
14154;DHT22;7157;53.144;7.570;2023-08-12T03:34:54;20.75;99.48
14154;DHT22;7157;53.144;7.570;2023-08-12T03:44:59;20.78;99.50
14154;DHT22;7157;53.144;7.570;2023-08-12T03:55:03;20.85;99.22
14154;DHT22;7157;53.144;7.570;2023-08-12T04:05:07;20.91;99.00
14154;DHT22;7157;53.144;7.570;2023-08-12T04:15:10;20.88;99.06
14154;DHT22;7157;53.144;7.570;2023-08-12T04:25:14;20.90;99.12
14154;DHT22;7157;53.144;7.570;2023-08-12T04:35:17;20.76;99.62
14154;DHT22;7157;53.144;7.570;2023-08-12T04:45:22;20.64;100.03
14154;DHT22;7157;53.144;7.570;2023-08-12T04:55:24;20.87;99.29
14154;DHT22;7157;53.144;7.570;2023-08-12T05:05:29;20.86;99.45
14154;DHT22;7157;53.144;7.570;2023-08-12T05:15:31;20.78;100.53
14154;DHT22;7157;53.144;7.570;2023-08-12T05:25:36;20.90;100.59
14154;DHT22;7157;53.144;7.570;2023-08-12T05:35:38;21.08;100.04
14154;DHT22;7157;53.144;7.570;2023-08-12T05:45:43;21.32;99.55
14154;DHT22;7157;53.144;7.570;2023-08-12T05:55:46;21.49;99.22
14154;DHT22;7157;53.144;7.570;2023-08-12T06:05:50;21.27;100.09
14154;DHT22;7157;53.144;7.570;2023-08-12T06:15:53;21.49;99.58
14154;DHT22;7157;53.144;7.570;2023-08-12T06:25:57;21.60;99.64
14154;DHT22;7157;53.144;7.570;2023-08-12T06:36:00;21.92;98.76
14154;DHT22;7157;53.144;7.570;2023-08-12T06:46:04;22.46;97.90
14154;DHT22;7157;53.144;7.570;2023-08-12T06:56:07;23.16;96.02
14154;DHT22;7157;53.144;7.570;2023-08-12T07:06:11;22.99;96.34
14154;DHT22;7157;53.144;7.570;2023-08-12T07:16:14;23.08;96.10
14154;DHT22;7157;53.144;7.570;2023-08-12T07:26:18;22.91;96.58
14154;DHT22;7157;53.144;7.570;2023-08-12T07:36:21;22.86;96.90
14154;DHT22;7157;53.144;7.570;2023-08-12T07:47:06;22.49;98.37
14154;DHT22;7157;53.144;7.570;2023-08-12T07:57:21;23.05;96.29
14154;DHT22;7157;53.144;7.570;2023-08-12T08:07:27;23.18;95.60
14154;DHT22;7157;53.144;7.570;2023-08-12T08:17:30;23.09;95.55
14154;DHT22;7157;53.144;7.570;2023-08-12T08:27:34;22.68;96.92
14154;DHT22;7157;53.144;7.570;2023-08-12T08:37:37;22.70;97.07
14154;DHT22;7157;53.144;7.570;2023-08-12T08:47:42;22.42;98.17
14154;DHT22;7157;53.144;7.570;2023-08-12T08:57:45;22.13;99.58
14154;DHT22;7157;53.144;7.570;2023-08-12T09:07:51;21.99;100.38
14154;DHT22;7157;53.144;7.570;2023-08-12T09:17:54;21.92;100.86
14154;DHT22;7157;53.144;7.570;2023-08-12T09:27:59;21.96;101.03
14154;DHT22;7157;53.144;7.570;2023-08-12T09:38:03;22.02;100.93
14154;DHT22;7157;53.144;7.570;2023-08-12T09:48:09;22.31;100.53
14154;DHT22;7157;53.144;7.570;2023-08-12T09:58:16;22.22;100.71
14154;DHT22;7157;53.144;7.570;2023-08-12T10:08:21;21.79;101.78
14154;DHT22;7157;53.144;7.570;2023-08-12T10:18:25;21.48;102.86
14154;DHT22;7157;53.144;7.570;2023-08-12T10:28:33;21.34;104.03
14154;DHT22;7157;53.144;7.570;2023-08-12T10:38:39;21.08;105.17
14154;DHT22;7157;53.144;7.570;2023-08-12T10:48:56;20.69;106.67
14154;DHT22;7157;53.144;7.570;2023-08-12T10:58:59;20.66;107.62
14154;DHT22;7157;53.144;7.570;2023-08-12T11:09:06;20.47;108.97
14154;DHT22;7157;53.144;7.570;2023-08-12T11:19:09;20.46;109.43
14154;DHT22;7157;53.144;7.570;2023-08-12T11:29:14;20.56;109.52
14154;DHT22;7157;53.144;7.570;2023-08-12T11:39:18;20.63;109.61
14154;DHT22;7157;53.144;7.570;2023-08-12T11:49:23;20.56;109.57
14154;DHT22;7157;53.144;7.570;2023-08-12T11:59:25;20.24;110.29
14154;DHT22;7157;53.144;7.570;2023-08-12T12:09:30;19.62;110.41
14154;DHT22;7157;53.144;7.570;2023-08-12T12:19:33;19.56;111.11
14154;DHT22;7157;53.144;7.570;2023-08-12T12:29:38;19.83;110.62
14154;DHT22;7157;53.144;7.570;2023-08-12T12:39:41;21.17;109.27
14154;DHT22;7157;53.144;7.570;2023-08-12T12:49:45;20.92;110.21
14154;DHT22;7157;53.144;7.570;2023-08-12T12:59:48;20.80;110.61
14154;DHT22;7157;53.144;7.570;2023-08-12T13:09:52;21.16;110.48
14154;DHT22;7157;53.144;7.570;2023-08-12T13:19:55;21.38;110.07
14154;DHT22;7157;53.144;7.570;2023-08-12T13:29:59;22.35;108.20
14154;DHT22;7157;53.144;7.570;2023-08-12T13:40:03;22.91;106.00
14154;DHT22;7157;53.144;7.570;2023-08-12T13:50:08;22.40;106.51
14154;DHT22;7157;53.144;7.570;2023-08-12T14:00:11;23.09;103.54
14154;DHT22;7157;53.144;7.570;2023-08-12T14:10:17;23.37;101.26
14154;DHT22;7157;53.144;7.570;2023-08-12T14:20:20;23.36;100.20
14154;DHT22;7157;53.144;7.570;2023-08-12T14:30:25;23.26;100.29
14154;DHT22;7157;53.144;7.570;2023-08-12T14:40:28;23.11;99.41
14154;DHT22;7157;53.144;7.570;2023-08-12T14:50:32;22.96;99.48
14154;DHT22;7157;53.144;7.570;2023-08-12T15:00:35;23.79;96.39
14154;DHT22;7157;53.144;7.570;2023-08-12T15:10:39;23.67;94.43
14154;DHT22;7157;53.144;7.570;2023-08-12T15:20:42;23.96;94.05
14154;DHT22;7157;53.144;7.570;2023-08-12T15:30:50;23.96;92.97
14154;DHT22;7157;53.144;7.570;2023-08-12T15:40:53;23.67;91.05
14154;DHT22;7157;53.144;7.570;2023-08-12T15:50:57;23.46;89.78
14154;DHT22;7157;53.144;7.570;2023-08-12T16:01:00;23.47;85.45
14154;DHT22;7157;53.144;7.570;2023-08-12T16:11:04;23.26;84.26
14154;DHT22;7157;53.144;7.570;2023-08-12T16:21:07;23.34;83.36
14154;DHT22;7157;53.144;7.570;2023-08-12T16:31:11;23.18;85.58
14154;DHT22;7157;53.144;7.570;2023-08-12T16:41:14;23.27;81.04
14154;DHT22;7157;53.144;7.570;2023-08-12T16:51:19;23.41;78.79
14154;DHT22;7157;53.144;7.570;2023-08-12T17:01:22;23.31;74.38
14154;DHT22;7157;53.144;7.570;2023-08-12T17:11:27;23.25;72.64
14154;DHT22;7157;53.144;7.570;2023-08-12T17:21:30;23.16;74.89
14154;DHT22;7157;53.144;7.570;2023-08-12T17:31:34;23.07;74.39
14154;DHT22;7157;53.144;7.570;2023-08-12T17:41:36;23.02;75.41
14154;DHT22;7157;53.144;7.570;2023-08-12T17:51:41;22.92;73.70
14154;DHT22;7157;53.144;7.570;2023-08-12T18:01:44;22.75;75.35
14154;DHT22;7157;53.144;7.570;2023-08-12T18:11:48;22.50;74.32
14154;DHT22;7157;53.144;7.570;2023-08-12T18:21:51;22.20;75.90
14154;DHT22;7157;53.144;7.570;2023-08-12T18:31:55;21.85;75.80
14154;DHT22;7157;53.144;7.570;2023-08-12T18:41:57;21.61;75.48
14154;DHT22;7157;53.144;7.570;2023-08-12T18:52:02;21.35;73.77
14154;DHT22;7157;53.144;7.570;2023-08-12T19:02:05;21.11;75.79
14154;DHT22;7157;53.144;7.570;2023-08-12T19:12:09;20.73;75.95
14154;DHT22;7157;53.144;7.570;2023-08-12T19:22:13;20.37;78.89
14154;DHT22;7157;53.144;7.570;2023-08-12T19:32:17;20.00;81.67
14154;DHT22;7157;53.144;7.570;2023-08-12T19:42:20;19.69;84.10
14154;DHT22;7157;53.144;7.570;2023-08-12T19:52:25;19.36;85.92
14154;DHT22;7157;53.144;7.570;2023-08-12T20:02:35;19.20;86.30
14154;DHT22;7157;53.144;7.570;2023-08-12T20:12:43;19.16;86.38
14154;DHT22;7157;53.144;7.570;2023-08-12T20:22:47;18.96;86.71
14154;DHT22;7157;53.144;7.570;2023-08-12T20:33:08;18.86;87.25
14154;DHT22;7157;53.144;7.570;2023-08-12T20:43:12;18.69;88.02
14154;DHT22;7157;53.144;7.570;2023-08-12T20:53:16;18.68;88.32
14154;DHT22;7157;53.144;7.570;2023-08-12T21:03:19;18.61;88.67
14154;DHT22;7157;53.144;7.570;2023-08-12T21:13:24;18.48;89.44
14154;DHT22;7157;53.144;7.570;2023-08-12T21:23:27;18.33;90.33
14154;DHT22;7157;53.144;7.570;2023-08-12T21:33:31;18.11;91.31
14154;DHT22;7157;53.144;7.570;2023-08-12T21:43:34;18.03;91.75
14154;DHT22;7157;53.144;7.570;2023-08-12T21:53:38;17.85;92.50
14154;DHT22;7157;53.144;7.570;2023-08-12T22:03:41;17.74;92.85
14154;DHT22;7157;53.144;7.570;2023-08-12T22:13:45;17.66;93.08
14154;DHT22;7157;53.144;7.570;2023-08-12T22:23:49;17.62;93.35
14154;DHT22;7157;53.144;7.570;2023-08-12T22:33:53;17.54;93.72
14154;DHT22;7157;53.144;7.570;2023-08-12T22:43:56;17.56;93.67
14154;DHT22;7157;53.144;7.570;2023-08-12T22:54:00;17.51;93.88
14154;DHT22;7157;53.144;7.570;2023-08-12T23:04:05;17.53;93.40
14154;DHT22;7157;53.144;7.570;2023-08-12T23:14:10;17.56;92.52
14154;DHT22;7157;53.144;7.570;2023-08-12T23:24:13;17.69;91.40
14154;DHT22;7157;53.144;7.570;2023-08-12T23:34:17;17.78;91.11
14154;DHT22;7157;53.144;7.570;2023-08-12T23:44:20;17.77;90.55
14154;DHT22;7157;53.144;7.570;2023-08-12T23:54:24;17.70;90.36
